TimeEST,TemperatureF,Dew PointF,Humidity,Sea Level PressureIn,VisibilityMPH,Wind Direction,Wind SpeedMPH,Gust SpeedMPH,PrecipitationIn,Events,Conditions,WindDirDegrees,DateUTC
12:15 AM,33.8,28.4,81,30.03,10.0,West,4.6,-,N/A,,Clear,270,2013-03-03 05:15:00
12:35 AM,33.8,28.4,81,30.02,10.0,West,3.5,-,N/A,,Clear,270,2013-03-03 05:35:00
12:55 AM,32.0,28.4,87,30.02,10.0,Calm,Calm,-,N/A,,Clear,0,2013-03-03 05:55:00
1:15 AM,32.0,28.4,87,30.02,10.0,West,3.5,-,N/A,,Clear,260,2013-03-03 06:15:00
1:35 AM,32.0,28.4,87,30.03,10.0,West,3.5,-,N/A,,Clear,260,2013-03-03 06:35:00
1:55 AM,32.0,28.4,87,30.03,10.0,West,5.8,-,N/A,,Clear,260,2013-03-03 06:55:00
2:15 AM,32.0,28.4,87,30.02,10.0,West,5.8,-,N/A,,Clear,280,2013-03-03 07:15:00
2:55 AM,33.8,28.4,81,30.02,10.0,WSW,3.5,-,N/A,,Clear,250,2013-03-03 07:55:00
3:15 AM,32.0,28.4,87,30.02,10.0,West,3.5,-,N/A,,Clear,260,2013-03-03 08:15:00
3:35 AM,32.0,28.4,87,30.02,10.0,West,3.5,-,N/A,,Clear,260,2013-03-03 08:35:00
3:55 AM,32.0,28.4,87,30.02,10.0,West,3.5,-,N/A,,Clear,260,2013-03-03 08:55:00
4:15 AM,32.0,28.4,87,30.02,10.0,WSW,3.5,-,N/A,,Clear,250,2013-03-03 09:15:00
4:35 AM,32.0,28.4,87,30.02,10.0,SW,3.5,-,N/A,,Clear,220,2013-03-03 09:35:00
4:55 AM,28.4,28.4,100,30.02,10.0,Calm,Calm,-,N/A,,Clear,0,2013-03-03 09:55:00
5:15 AM,28.4,26.6,93,30.02,10.0,Calm,Calm,-,N/A,,Clear,0,2013-03-03 10:15:00
5:35 AM,28.4,26.6,93,30.03,10.0,Calm,Calm,-,N/A,,Clear,0,2013-03-03 10:35:00
5:55 AM,26.6,26.6,100,30.03,10.0,Calm,Calm,-,N/A,,Clear,0,2013-03-03 10:55:00
6:35 AM,26.6,26.6,100,30.04,10.0,Calm,Calm,-,N/A,,Clear,0,2013-03-03 11:35:00
6:50 AM,26.6,26.6,100,30.04,10.0,WSW,3.5,-,N/A,,Clear,250,2013-03-03 11:50:00
8:50 AM,39.2,33.8,81,30.07,10.0,WNW,8.1,-,N/A,,Partly Cloudy,300,2013-03-03 13:50:00
9:50 AM,42.8,26.6,53,30.07,10.0,NNW,13.8,-,N/A,,Mostly Cloudy,330,2013-03-03 14:50:00
10:50 AM,42.8,24.8,49,30.07,10.0,NNW,8.1,13.8,N/A,,Overcast,330,2013-03-03 15:50:00
11:50 AM,42.8,24.8,49,30.07,10.0,WNW,11.5,-,N/A,,Overcast,300,2013-03-03 16:50:00
12:50 PM,44.6,24.8,46,30.05,10.0,WNW,11.5,-,N/A,,Overcast,290,2013-03-03 17:50:00
1:50 PM,44.6,24.8,46,30.04,10.0,West,11.5,-,N/A,,Overcast,280,2013-03-03 18:50:00
3:50 PM,44.6,26.6,49,30.03,10.0,WNW,13.8,19.6,N/A,,Mostly Cloudy,290,2013-03-03 20:50:00
4:50 PM,46.4,26.6,46,30.03,10.0,West,12.7,18.4,N/A,,Scattered Clouds,280,2013-03-03 21:50:00
5:50 PM,44.6,24.8,46,30.04,10.0,WNW,11.5,-,N/A,,Clear,300,2013-03-03 22:50:00
6:50 PM,41.0,24.8,53,30.07,10.0,WNW,6.9,-,N/A,,Clear,290,2013-03-03 23:50:00
8:15 PM,33.8,26.6,75,30.11,10.0,Calm,Calm,-,N/A,,Clear,0,2013-03-04 01:15:00
8:35 PM,32.0,26.6,80,30.12,10.0,Calm,Calm,-,N/A,,Clear,0,2013-03-04 01:35:00
8:55 PM,30.2,26.6,86,30.13,10.0,Calm,Calm,-,N/A,,Clear,0,2013-03-04 01:55:00
9:15 PM,28.4,26.6,93,30.14,10.0,Calm,Calm,-,N/A,,Clear,0,2013-03-04 02:15:00
9:35 PM,28.4,26.6,93,30.14,10.0,Calm,Calm,-,N/A,,Clear,0,2013-03-04 02:35:00
9:55 PM,28.4,26.6,93,30.15,10.0,Calm,Calm,-,N/A,,Clear,0,2013-03-04 02:55:00
10:15 PM,28.4,26.6,93,30.15,10.0,Calm,Calm,-,N/A,,Clear,0,2013-03-04 03:15:00
10:35 PM,28.4,26.6,93,30.15,10.0,Calm,Calm,-,N/A,,Clear,0,2013-03-04 03:35:00
10:55 PM,26.6,24.8,93,30.15,10.0,Calm,Calm,-,N/A,,Clear,0,2013-03-04 03:55:00
11:15 PM,26.6,24.8,93,30.15,10.0,Calm,Calm,-,N/A,,Clear,0,2013-03-04 04:15:00
11:35 PM,26.6,24.8,93,30.15,10.0,Calm,Calm,-,N/A,,Clear,0,2013-03-04 04:35:00
11:55 PM,26.6,24.8,93,30.15,10.0,Calm,Calm,-,N/A,,Clear,0,2013-03-04 04:55:00